sensor_id;sensor_type;location;lat;lon;timestamp;P1;durP1;ratioP1;P2;durP2;ratioP2
12663;SDS011;6396;58.490;15.528;2022-11-15T00:02:01;6.97;;;4.37;;
12663;SDS011;6396;58.490;15.528;2022-11-15T00:04:31;6.43;;;4.67;;
12663;SDS011;6396;58.490;15.528;2022-11-15T00:06:58;6.53;;;4.13;;
12663;SDS011;6396;58.490;15.528;2022-11-15T00:09:24;5.03;;;4.53;;
12663;SDS011;6396;58.490;15.528;2022-11-15T00:11:51;6.17;;;4.87;;
12663;SDS011;6396;58.490;15.528;2022-11-15T00:14:18;7.10;;;4.10;;
12663;SDS011;6396;58.490;15.528;2022-11-15T00:16:45;5.53;;;4.27;;
12663;SDS011;6396;58.490;15.528;2022-11-15T00:19:12;8.07;;;4.47;;
12663;SDS011;6396;58.490;15.528;2022-11-15T00:21:43;5.10;;;3.87;;
12663;SDS011;6396;58.490;15.528;2022-11-15T00:24:10;4.90;;;4.40;;
12663;SDS011;6396;58.490;15.528;2022-11-15T00:26:37;7.17;;;4.33;;
12663;SDS011;6396;58.490;15.528;2022-11-15T00:29:04;4.67;;;3.73;;
12663;SDS011;6396;58.490;15.528;2022-11-15T00:31:30;5.23;;;4.07;;
12663;SDS011;6396;58.490;15.528;2022-11-15T00:33:57;5.13;;;3.90;;
12663;SDS011;6396;58.490;15.528;2022-11-15T00:36:24;5.23;;;4.17;;
12663;SDS011;6396;58.490;15.528;2022-11-15T00:38:52;4.90;;;3.87;;
12663;SDS011;6396;58.490;15.528;2022-11-15T00:41:19;6.53;;;4.23;;
12663;SDS011;6396;58.490;15.528;2022-11-15T00:43:46;5.93;;;3.90;;
12663;SDS011;6396;58.490;15.528;2022-11-15T00:46:13;5.53;;;4.30;;
12663;SDS011;6396;58.490;15.528;2022-11-15T00:48:40;4.83;;;4.03;;
12663;SDS011;6396;58.490;15.528;2022-11-15T00:51:07;5.03;;;4.03;;
12663;SDS011;6396;58.490;15.528;2022-11-15T00:53:34;4.77;;;4.20;;
12663;SDS011;6396;58.490;15.528;2022-11-15T00:56:02;4.47;;;3.70;;
12663;SDS011;6396;58.490;15.528;2022-11-15T00:58:29;5.63;;;4.47;;
12663;SDS011;6396;58.490;15.528;2022-11-15T01:00:56;6.83;;;4.30;;
12663;SDS011;6396;58.490;15.528;2022-11-15T01:03:22;5.07;;;4.40;;
12663;SDS011;6396;58.490;15.528;2022-11-15T01:05:49;6.77;;;5.03;;
12663;SDS011;6396;58.490;15.528;2022-11-15T01:08:16;5.37;;;4.17;;
12663;SDS011;6396;58.490;15.528;2022-11-15T01:10:43;5.43;;;4.33;;
12663;SDS011;6396;58.490;15.528;2022-11-15T01:13:11;5.63;;;4.47;;
12663;SDS011;6396;58.490;15.528;2022-11-15T01:15:38;5.67;;;4.40;;
12663;SDS011;6396;58.490;15.528;2022-11-15T01:18:06;5.90;;;4.80;;
12663;SDS011;6396;58.490;15.528;2022-11-15T01:20:33;4.70;;;4.20;;
12663;SDS011;6396;58.490;15.528;2022-11-15T01:23:00;6.00;;;4.50;;
12663;SDS011;6396;58.490;15.528;2022-11-15T01:25:26;6.23;;;4.40;;
12663;SDS011;6396;58.490;15.528;2022-11-15T01:27:53;4.77;;;4.30;;
12663;SDS011;6396;58.490;15.528;2022-11-15T01:30:22;6.23;;;4.33;;
12663;SDS011;6396;58.490;15.528;2022-11-15T01:32:48;5.60;;;4.67;;
12663;SDS011;6396;58.490;15.528;2022-11-15T01:35:16;8.07;;;5.10;;
12663;SDS011;6396;58.490;15.528;2022-11-15T01:37:42;7.13;;;5.00;;
12663;SDS011;6396;58.490;15.528;2022-11-15T01:40:10;6.33;;;4.23;;
12663;SDS011;6396;58.490;15.528;2022-11-15T01:42:37;7.43;;;4.60;;
12663;SDS011;6396;58.490;15.528;2022-11-15T01:45:04;5.27;;;4.50;;
12663;SDS011;6396;58.490;15.528;2022-11-15T01:47:34;7.10;;;4.83;;
12663;SDS011;6396;58.490;15.528;2022-11-15T01:50:05;6.03;;;5.00;;
12663;SDS011;6396;58.490;15.528;2022-11-15T01:52:34;6.37;;;4.80;;
12663;SDS011;6396;58.490;15.528;2022-11-15T01:55:05;4.93;;;4.23;;
12663;SDS011;6396;58.490;15.528;2022-11-15T01:57:34;7.63;;;4.73;;
12663;SDS011;6396;58.490;15.528;2022-11-15T02:00:02;5.40;;;4.80;;
12663;SDS011;6396;58.490;15.528;2022-11-15T02:02:30;5.50;;;4.80;;
12663;SDS011;6396;58.490;15.528;2022-11-15T02:04:59;6.33;;;4.53;;
12663;SDS011;6396;58.490;15.528;2022-11-15T02:07:26;6.40;;;4.83;;
12663;SDS011;6396;58.490;15.528;2022-11-15T02:09:54;7.77;;;5.63;;
12663;SDS011;6396;58.490;15.528;2022-11-15T02:12:24;8.67;;;6.30;;
12663;SDS011;6396;58.490;15.528;2022-11-15T02:14:51;8.13;;;6.10;;
12663;SDS011;6396;58.490;15.528;2022-11-15T02:20:29;6.30;;;5.67;;
12663;SDS011;6396;58.490;15.528;2022-11-15T02:23:30;8.83;;;6.67;;
12663;SDS011;6396;58.490;15.528;2022-11-15T02:26:19;10.40;;;6.83;;
12663;SDS011;6396;58.490;15.528;2022-11-15T02:28:57;8.67;;;6.13;;
12663;SDS011;6396;58.490;15.528;2022-11-15T02:31:31;10.37;;;7.73;;
12663;SDS011;6396;58.490;15.528;2022-11-15T02:34:06;9.60;;;7.23;;
12663;SDS011;6396;58.490;15.528;2022-11-15T02:36:41;8.23;;;6.93;;
12663;SDS011;6396;58.490;15.528;2022-11-15T02:39:17;7.37;;;6.43;;
12663;SDS011;6396;58.490;15.528;2022-11-15T02:41:53;8.53;;;6.60;;
12663;SDS011;6396;58.490;15.528;2022-11-15T02:44:23;9.53;;;6.30;;
12663;SDS011;6396;58.490;15.528;2022-11-15T02:46:58;6.60;;;5.83;;
12663;SDS011;6396;58.490;15.528;2022-11-15T02:49:40;9.20;;;6.53;;
12663;SDS011;6396;58.490;15.528;2022-11-15T02:52:14;8.57;;;5.77;;
12663;SDS011;6396;58.490;15.528;2022-11-15T02:54:42;7.33;;;5.30;;
12663;SDS011;6396;58.490;15.528;2022-11-15T02:57:18;8.47;;;5.67;;
12663;SDS011;6396;58.490;15.528;2022-11-15T02:59:59;6.37;;;5.07;;
12663;SDS011;6396;58.490;15.528;2022-11-15T03:05:25;6.07;;;5.37;;
12663;SDS011;6396;58.490;15.528;2022-11-15T03:08:00;6.70;;;5.00;;
12663;SDS011;6396;58.490;15.528;2022-11-15T03:10:38;6.00;;;5.33;;
12663;SDS011;6396;58.490;15.528;2022-11-15T03:13:16;7.60;;;5.03;;
12663;SDS011;6396;58.490;15.528;2022-11-15T03:15:49;8.53;;;5.03;;
12663;SDS011;6396;58.490;15.528;2022-11-15T03:18:26;6.43;;;4.60;;
12663;SDS011;6396;58.490;15.528;2022-11-15T03:20:58;5.90;;;4.67;;
12663;SDS011;6396;58.490;15.528;2022-11-15T03:23:30;6.57;;;4.43;;
12663;SDS011;6396;58.490;15.528;2022-11-15T03:25:58;6.63;;;4.60;;
12663;SDS011;6396;58.490;15.528;2022-11-15T03:28:29;7.13;;;4.60;;
12663;SDS011;6396;58.490;15.528;2022-11-15T03:31:00;4.90;;;4.37;;
12663;SDS011;6396;58.490;15.528;2022-11-15T03:33:50;6.63;;;4.57;;
12663;SDS011;6396;58.490;15.528;2022-11-15T03:36:20;5.30;;;4.20;;
12663;SDS011;6396;58.490;15.528;2022-11-15T03:38:49;4.37;;;3.97;;
12663;SDS011;6396;58.490;15.528;2022-11-15T03:41:21;7.83;;;4.57;;
12663;SDS011;6396;58.490;15.528;2022-11-15T03:43:52;5.30;;;4.20;;
12663;SDS011;6396;58.490;15.528;2022-11-15T03:46:24;5.50;;;4.30;;
12663;SDS011;6396;58.490;15.528;2022-11-15T03:48:56;5.90;;;4.53;;
12663;SDS011;6396;58.490;15.528;2022-11-15T03:51:30;5.30;;;3.93;;
12663;SDS011;6396;58.490;15.528;2022-11-15T03:53:57;4.70;;;3.90;;
12663;SDS011;6396;58.490;15.528;2022-11-15T03:56:24;5.97;;;4.40;;
12663;SDS011;6396;58.490;15.528;2022-11-15T03:58:51;6.47;;;4.10;;
12663;SDS011;6396;58.490;15.528;2022-11-15T04:01:18;6.20;;;4.53;;
12663;SDS011;6396;58.490;15.528;2022-11-15T04:03:44;5.77;;;4.10;;
12663;SDS011;6396;58.490;15.528;2022-11-15T04:06:13;6.37;;;4.63;;
12663;SDS011;6396;58.490;15.528;2022-11-15T04:08:39;6.37;;;4.30;;
12663;SDS011;6396;58.490;15.528;2022-11-15T04:11:06;7.07;;;3.63;;
12663;SDS011;6396;58.490;15.528;2022-11-15T04:13:33;4.67;;;3.70;;
12663;SDS011;6396;58.490;15.528;2022-11-15T04:16:00;4.90;;;4.10;;
12663;SDS011;6396;58.490;15.528;2022-11-15T04:18:27;5.00;;;4.17;;
12663;SDS011;6396;58.490;15.528;2022-11-15T04:20:53;5.70;;;4.10;;
12663;SDS011;6396;58.490;15.528;2022-11-15T04:23:39;6.20;;;4.07;;
12663;SDS011;6396;58.490;15.528;2022-11-15T04:26:25;5.20;;;3.80;;
12663;SDS011;6396;58.490;15.528;2022-11-15T04:28:52;4.10;;;3.67;;
12663;SDS011;6396;58.490;15.528;2022-11-15T04:31:36;4.87;;;3.67;;
12663;SDS011;6396;58.490;15.528;2022-11-15T04:34:03;4.70;;;3.33;;
12663;SDS011;6396;58.490;15.528;2022-11-15T04:36:30;4.67;;;3.50;;
12663;SDS011;6396;58.490;15.528;2022-11-15T04:39:30;4.77;;;3.83;;
12663;SDS011;6396;58.490;15.528;2022-11-15T04:41:57;4.23;;;3.60;;
12663;SDS011;6396;58.490;15.528;2022-11-15T04:44:24;4.60;;;3.90;;
12663;SDS011;6396;58.490;15.528;2022-11-15T04:46:50;5.37;;;3.63;;
12663;SDS011;6396;58.490;15.528;2022-11-15T04:49:17;5.27;;;3.60;;
12663;SDS011;6396;58.490;15.528;2022-11-15T04:51:44;3.40;;;3.10;;
12663;SDS011;6396;58.490;15.528;2022-11-15T04:54:11;3.93;;;3.40;;
12663;SDS011;6396;58.490;15.528;2022-11-15T04:56:39;5.93;;;3.10;;
12663;SDS011;6396;58.490;15.528;2022-11-15T04:59:06;3.60;;;2.53;;
12663;SDS011;6396;58.490;15.528;2022-11-15T05:01:32;4.50;;;2.70;;
12663;SDS011;6396;58.490;15.528;2022-11-15T05:04:00;4.40;;;2.67;;
12663;SDS011;6396;58.490;15.528;2022-11-15T05:06:44;2.87;;;2.57;;
12663;SDS011;6396;58.490;15.528;2022-11-15T05:09:11;2.67;;;2.37;;
12663;SDS011;6396;58.490;15.528;2022-11-15T05:11:40;3.13;;;2.50;;
12663;SDS011;6396;58.490;15.528;2022-11-15T05:14:07;3.07;;;2.10;;
12663;SDS011;6396;58.490;15.528;2022-11-15T05:16:34;2.97;;;1.93;;
12663;SDS011;6396;58.490;15.528;2022-11-15T05:19:01;3.80;;;2.10;;
12663;SDS011;6396;58.490;15.528;2022-11-15T05:21:28;2.67;;;2.13;;
12663;SDS011;6396;58.490;15.528;2022-11-15T05:23:55;2.67;;;1.80;;
12663;SDS011;6396;58.490;15.528;2022-11-15T05:26:22;2.20;;;2.00;;
12663;SDS011;6396;58.490;15.528;2022-11-15T05:28:53;3.13;;;1.87;;
12663;SDS011;6396;58.490;15.528;2022-11-15T05:31:20;2.60;;;2.30;;
12663;SDS011;6396;58.490;15.528;2022-11-15T05:33:48;2.40;;;2.13;;
12663;SDS011;6396;58.490;15.528;2022-11-15T05:36:17;3.50;;;2.47;;
12663;SDS011;6396;58.490;15.528;2022-11-15T05:38:48;2.00;;;1.80;;
12663;SDS011;6396;58.490;15.528;2022-11-15T05:41:16;2.33;;;1.83;;
12663;SDS011;6396;58.490;15.528;2022-11-15T05:43:47;2.20;;;2.00;;
12663;SDS011;6396;58.490;15.528;2022-11-15T05:46:17;2.17;;;1.97;;
12663;SDS011;6396;58.490;15.528;2022-11-15T05:48:45;2.10;;;1.90;;
12663;SDS011;6396;58.490;15.528;2022-11-15T05:51:16;2.63;;;2.00;;
12663;SDS011;6396;58.490;15.528;2022-11-15T05:53:46;3.50;;;2.37;;
12663;SDS011;6396;58.490;15.528;2022-11-15T05:56:14;3.10;;;2.57;;
12663;SDS011;6396;58.490;15.528;2022-11-15T05:58:41;2.03;;;1.80;;
12663;SDS011;6396;58.490;15.528;2022-11-15T06:01:08;2.53;;;2.10;;
12663;SDS011;6396;58.490;15.528;2022-11-15T06:03:37;2.90;;;2.10;;
12663;SDS011;6396;58.490;15.528;2022-11-15T06:06:04;2.50;;;1.60;;
12663;SDS011;6396;58.490;15.528;2022-11-15T06:08:31;1.90;;;1.40;;
12663;SDS011;6396;58.490;15.528;2022-11-15T06:11:02;1.90;;;1.60;;
12663;SDS011;6396;58.490;15.528;2022-11-15T06:13:30;1.83;;;1.47;;
12663;SDS011;6396;58.490;15.528;2022-11-15T06:15:57;1.50;;;1.40;;
12663;SDS011;6396;58.490;15.528;2022-11-15T06:18:23;1.87;;;1.67;;
12663;SDS011;6396;58.490;15.528;2022-11-15T06:20:52;3.97;;;1.50;;
12663;SDS011;6396;58.490;15.528;2022-11-15T06:23:18;1.30;;;1.20;;
12663;SDS011;6396;58.490;15.528;2022-11-15T06:25:45;1.37;;;1.27;;
12663;SDS011;6396;58.490;15.528;2022-11-15T06:28:12;1.17;;;1.10;;
12663;SDS011;6396;58.490;15.528;2022-11-15T06:30:39;1.40;;;1.30;;
12663;SDS011;6396;58.490;15.528;2022-11-15T06:33:06;1.20;;;1.10;;
12663;SDS011;6396;58.490;15.528;2022-11-15T06:35:34;2.10;;;1.30;;
12663;SDS011;6396;58.490;15.528;2022-11-15T06:38:03;1.60;;;1.40;;
12663;SDS011;6396;58.490;15.528;2022-11-15T06:40:32;1.30;;;1.20;;
12663;SDS011;6396;58.490;15.528;2022-11-15T06:43:01;1.40;;;1.30;;
12663;SDS011;6396;58.490;15.528;2022-11-15T06:45:28;1.67;;;1.30;;
12663;SDS011;6396;58.490;15.528;2022-11-15T06:47:55;1.60;;;1.33;;
12663;SDS011;6396;58.490;15.528;2022-11-15T06:50:22;1.90;;;1.50;;
12663;SDS011;6396;58.490;15.528;2022-11-15T06:52:48;1.50;;;1.40;;
12663;SDS011;6396;58.490;15.528;2022-11-15T06:55:17;1.77;;;1.03;;
12663;SDS011;6396;58.490;15.528;2022-11-15T06:57:47;1.80;;;1.30;;
12663;SDS011;6396;58.490;15.528;2022-11-15T07:00:15;1.63;;;1.40;;
12663;SDS011;6396;58.490;15.528;2022-11-15T07:02:43;1.90;;;1.33;;
12663;SDS011;6396;58.490;15.528;2022-11-15T07:05:10;1.13;;;1.07;;
12663;SDS011;6396;58.490;15.528;2022-11-15T07:07:39;1.20;;;1.07;;
12663;SDS011;6396;58.490;15.528;2022-11-15T07:10:06;1.23;;;1.13;;
12663;SDS011;6396;58.490;15.528;2022-11-15T07:12:37;0.93;;;0.87;;
12663;SDS011;6396;58.490;15.528;2022-11-15T07:15:06;1.23;;;0.93;;
12663;SDS011;6396;58.490;15.528;2022-11-15T07:17:34;1.97;;;1.23;;
12663;SDS011;6396;58.490;15.528;2022-11-15T07:20:01;0.93;;;0.83;;
12663;SDS011;6396;58.490;15.528;2022-11-15T07:22:28;0.93;;;0.80;;
12663;SDS011;6396;58.490;15.528;2022-11-15T07:24:55;0.70;;;0.70;;
12663;SDS011;6396;58.490;15.528;2022-11-15T07:27:22;1.10;;;1.00;;
12663;SDS011;6396;58.490;15.528;2022-11-15T07:29:50;1.10;;;0.93;;
12663;SDS011;6396;58.490;15.528;2022-11-15T07:32:17;1.37;;;0.70;;
12663;SDS011;6396;58.490;15.528;2022-11-15T07:34:44;0.90;;;0.90;;
12663;SDS011;6396;58.490;15.528;2022-11-15T07:37:11;0.70;;;0.70;;
12663;SDS011;6396;58.490;15.528;2022-11-15T07:39:38;1.13;;;1.10;;
12663;SDS011;6396;58.490;15.528;2022-11-15T07:42:05;1.70;;;0.80;;
12663;SDS011;6396;58.490;15.528;2022-11-15T07:44:51;0.80;;;0.80;;
12663;SDS011;6396;58.490;15.528;2022-11-15T07:47:18;0.90;;;0.80;;
12663;SDS011;6396;58.490;15.528;2022-11-15T07:49:47;1.00;;;0.90;;
12663;SDS011;6396;58.490;15.528;2022-11-15T07:52:14;0.80;;;0.80;;
12663;SDS011;6396;58.490;15.528;2022-11-15T07:54:51;0.80;;;0.70;;
12663;SDS011;6396;58.490;15.528;2022-11-15T07:57:31;1.13;;;0.80;;
12663;SDS011;6396;58.490;15.528;2022-11-15T08:00:02;1.00;;;0.90;;
12663;SDS011;6396;58.490;15.528;2022-11-15T08:02:32;2.13;;;0.93;;
12663;SDS011;6396;58.490;15.528;2022-11-15T08:04:59;1.33;;;0.87;;
12663;SDS011;6396;58.490;15.528;2022-11-15T08:07:33;1.70;;;1.00;;
12663;SDS011;6396;58.490;15.528;2022-11-15T08:10:00;1.33;;;0.80;;
12663;SDS011;6396;58.490;15.528;2022-11-15T08:12:29;1.17;;;1.00;;
12663;SDS011;6396;58.490;15.528;2022-11-15T08:14:56;2.33;;;1.13;;
12663;SDS011;6396;58.490;15.528;2022-11-15T08:17:26;1.13;;;1.03;;
12663;SDS011;6396;58.490;15.528;2022-11-15T08:19:58;0.93;;;0.90;;
12663;SDS011;6396;58.490;15.528;2022-11-15T08:22:25;1.87;;;1.00;;
12663;SDS011;6396;58.490;15.528;2022-11-15T08:24:52;1.67;;;1.20;;
12663;SDS011;6396;58.490;15.528;2022-11-15T08:27:23;1.27;;;1.17;;
12663;SDS011;6396;58.490;15.528;2022-11-15T08:29:50;1.73;;;1.17;;
12663;SDS011;6396;58.490;15.528;2022-11-15T08:32:17;1.63;;;0.93;;
12663;SDS011;6396;58.490;15.528;2022-11-15T08:34:46;1.87;;;1.40;;
12663;SDS011;6396;58.490;15.528;2022-11-15T08:37:14;2.83;;;1.50;;
12663;SDS011;6396;58.490;15.528;2022-11-15T08:39:41;1.37;;;1.20;;
12663;SDS011;6396;58.490;15.528;2022-11-15T08:42:08;1.50;;;1.40;;
12663;SDS011;6396;58.490;15.528;2022-11-15T08:44:35;2.63;;;1.83;;
12663;SDS011;6396;58.490;15.528;2022-11-15T08:47:02;2.50;;;2.20;;
12663;SDS011;6396;58.490;15.528;2022-11-15T08:49:29;2.00;;;1.80;;
12663;SDS011;6396;58.490;15.528;2022-11-15T08:51:59;2.27;;;2.07;;
12663;SDS011;6396;58.490;15.528;2022-11-15T08:54:28;2.83;;;1.90;;
12663;SDS011;6396;58.490;15.528;2022-11-15T08:56:56;3.00;;;2.17;;
12663;SDS011;6396;58.490;15.528;2022-11-15T08:59:24;2.70;;;1.70;;
12663;SDS011;6396;58.490;15.528;2022-11-15T09:01:51;2.43;;;1.80;;
12663;SDS011;6396;58.490;15.528;2022-11-15T09:04:18;1.67;;;1.47;;
12663;SDS011;6396;58.490;15.528;2022-11-15T09:06:48;1.53;;;1.40;;
12663;SDS011;6396;58.490;15.528;2022-11-15T09:09:17;3.07;;;1.60;;
12663;SDS011;6396;58.490;15.528;2022-11-15T09:11:44;2.33;;;1.60;;
12663;SDS011;6396;58.490;15.528;2022-11-15T09:14:11;2.70;;;1.70;;
12663;SDS011;6396;58.490;15.528;2022-11-15T09:16:41;1.73;;;1.20;;
12663;SDS011;6396;58.490;15.528;2022-11-15T09:19:08;1.40;;;1.30;;
12663;SDS011;6396;58.490;15.528;2022-11-15T09:21:35;1.63;;;1.30;;
12663;SDS011;6396;58.490;15.528;2022-11-15T09:24:02;1.93;;;1.40;;
12663;SDS011;6396;58.490;15.528;2022-11-15T09:26:30;1.80;;;1.30;;
12663;SDS011;6396;58.490;15.528;2022-11-15T09:28:57;1.40;;;1.30;;
12663;SDS011;6396;58.490;15.528;2022-11-15T09:31:26;1.50;;;1.40;;
12663;SDS011;6396;58.490;15.528;2022-11-15T09:33:54;1.60;;;1.30;;
12663;SDS011;6396;58.490;15.528;2022-11-15T09:36:22;2.57;;;1.30;;
12663;SDS011;6396;58.490;15.528;2022-11-15T09:38:49;1.37;;;1.27;;
12663;SDS011;6396;58.490;15.528;2022-11-15T09:41:24;1.47;;;1.37;;
12663;SDS011;6396;58.490;15.528;2022-11-15T09:44:05;1.60;;;1.50;;
12663;SDS011;6396;58.490;15.528;2022-11-15T09:46:44;2.17;;;1.30;;
12663;SDS011;6396;58.490;15.528;2022-11-15T09:49:18;2.43;;;1.50;;
12663;SDS011;6396;58.490;15.528;2022-11-15T09:51:49;2.40;;;1.50;;
12663;SDS011;6396;58.490;15.528;2022-11-15T09:54:21;1.83;;;1.40;;
12663;SDS011;6396;58.490;15.528;2022-11-15T09:57:02;2.70;;;1.30;;
12663;SDS011;6396;58.490;15.528;2022-11-15T09:59:37;1.80;;;1.43;;
12663;SDS011;6396;58.490;15.528;2022-11-15T10:02:14;2.23;;;1.30;;
12663;SDS011;6396;58.490;15.528;2022-11-15T10:04:57;1.70;;;1.23;;
12663;SDS011;6396;58.490;15.528;2022-11-15T10:07:26;2.80;;;1.30;;
12663;SDS011;6396;58.490;15.528;2022-11-15T10:10:00;1.70;;;1.30;;
12663;SDS011;6396;58.490;15.528;2022-11-15T10:12:35;2.17;;;1.10;;
12663;SDS011;6396;58.490;15.528;2022-11-15T10:15:04;3.93;;;1.47;;
12663;SDS011;6396;58.490;15.528;2022-11-15T10:17:41;1.63;;;1.10;;
12663;SDS011;6396;58.490;15.528;2022-11-15T10:20:34;2.00;;;1.27;;
12663;SDS011;6396;58.490;15.528;2022-11-15T10:23:11;2.83;;;1.30;;
12663;SDS011;6396;58.490;15.528;2022-11-15T10:25:41;2.20;;;1.10;;
12663;SDS011;6396;58.490;15.528;2022-11-15T10:28:11;3.60;;;1.80;;
12663;SDS011;6396;58.490;15.528;2022-11-15T10:30:43;2.90;;;1.40;;
12663;SDS011;6396;58.490;15.528;2022-11-15T10:33:16;3.70;;;1.70;;
12663;SDS011;6396;58.490;15.528;2022-11-15T10:35:54;1.43;;;1.20;;
12663;SDS011;6396;58.490;15.528;2022-11-15T10:38:57;3.53;;;1.63;;
12663;SDS011;6396;58.490;15.528;2022-11-15T10:44:21;3.53;;;1.33;;
12663;SDS011;6396;58.490;15.528;2022-11-15T10:49:57;1.60;;;1.10;;
12663;SDS011;6396;58.490;15.528;2022-11-15T10:52:25;2.77;;;1.30;;
12663;SDS011;6396;58.490;15.528;2022-11-15T10:54:54;3.27;;;1.30;;
12663;SDS011;6396;58.490;15.528;2022-11-15T10:57:24;1.60;;;1.23;;
12663;SDS011;6396;58.490;15.528;2022-11-15T10:59:56;1.90;;;1.23;;
12663;SDS011;6396;58.490;15.528;2022-11-15T11:02:30;2.83;;;1.20;;
12663;SDS011;6396;58.490;15.528;2022-11-15T11:05:00;2.17;;;1.10;;
12663;SDS011;6396;58.490;15.528;2022-11-15T11:07:29;1.40;;;1.30;;
12663;SDS011;6396;58.490;15.528;2022-11-15T11:09:58;4.23;;;1.40;;
12663;SDS011;6396;58.490;15.528;2022-11-15T11:12:27;2.53;;;1.23;;
12663;SDS011;6396;58.490;15.528;2022-11-15T11:14:58;4.60;;;1.20;;
12663;SDS011;6396;58.490;15.528;2022-11-15T11:17:32;1.60;;;1.20;;
12663;SDS011;6396;58.490;15.528;2022-11-15T11:20:17;1.83;;;1.20;;
12663;SDS011;6396;58.490;15.528;2022-11-15T11:22:56;1.10;;;1.00;;
12663;SDS011;6396;58.490;15.528;2022-11-15T11:25:30;1.73;;;1.00;;
12663;SDS011;6396;58.490;15.528;2022-11-15T11:28:05;2.83;;;1.27;;
12663;SDS011;6396;58.490;15.528;2022-11-15T11:30:50;2.10;;;1.10;;
12663;SDS011;6396;58.490;15.528;2022-11-15T11:33:26;0.90;;;0.90;;
12663;SDS011;6396;58.490;15.528;2022-11-15T11:36:01;2.00;;;1.10;;
12663;SDS011;6396;58.490;15.528;2022-11-15T11:38:42;1.83;;;1.17;;
12663;SDS011;6396;58.490;15.528;2022-11-15T11:41:20;1.40;;;1.00;;
12663;SDS011;6396;58.490;15.528;2022-11-15T11:43:59;2.37;;;1.30;;
12663;SDS011;6396;58.490;15.528;2022-11-15T11:46:41;1.43;;;0.90;;
12663;SDS011;6396;58.490;15.528;2022-11-15T11:49:16;1.40;;;1.17;;
12663;SDS011;6396;58.490;15.528;2022-11-15T11:51:49;1.33;;;1.00;;
12663;SDS011;6396;58.490;15.528;2022-11-15T11:54:23;2.10;;;1.13;;
12663;SDS011;6396;58.490;15.528;2022-11-15T11:56:58;1.00;;;0.90;;
12663;SDS011;6396;58.490;15.528;2022-11-15T11:59:30;3.00;;;1.20;;
12663;SDS011;6396;58.490;15.528;2022-11-15T12:02:10;1.37;;;1.00;;
12663;SDS011;6396;58.490;15.528;2022-11-15T12:04:43;3.03;;;1.30;;
12663;SDS011;6396;58.490;15.528;2022-11-15T12:07:17;1.53;;;1.00;;
12663;SDS011;6396;58.490;15.528;2022-11-15T12:09:51;1.37;;;1.20;;
12663;SDS011;6396;58.490;15.528;2022-11-15T12:12:25;2.10;;;1.20;;
12663;SDS011;6396;58.490;15.528;2022-11-15T12:14:59;2.77;;;1.33;;
12663;SDS011;6396;58.490;15.528;2022-11-15T12:17:30;3.73;;;1.30;;
12663;SDS011;6396;58.490;15.528;2022-11-15T12:19:58;1.60;;;1.10;;
12663;SDS011;6396;58.490;15.528;2022-11-15T12:22:34;2.80;;;1.47;;
12663;SDS011;6396;58.490;15.528;2022-11-15T12:25:07;3.00;;;1.30;;
12663;SDS011;6396;58.490;15.528;2022-11-15T12:27:42;1.77;;;1.10;;
12663;SDS011;6396;58.490;15.528;2022-11-15T12:30:15;4.23;;;1.40;;
12663;SDS011;6396;58.490;15.528;2022-11-15T12:35:30;1.03;;;0.93;;
12663;SDS011;6396;58.490;15.528;2022-11-15T12:38:09;2.43;;;1.20;;
12663;SDS011;6396;58.490;15.528;2022-11-15T12:40:37;2.33;;;1.10;;
12663;SDS011;6396;58.490;15.528;2022-11-15T12:46:05;1.43;;;1.10;;
12663;SDS011;6396;58.490;15.528;2022-11-15T12:54:51;2.33;;;1.27;;
12663;SDS011;6396;58.490;15.528;2022-11-15T13:03:25;2.27;;;1.10;;
12663;SDS011;6396;58.490;15.528;2022-11-15T13:09:00;1.07;;;1.00;;
12663;SDS011;6396;58.490;15.528;2022-11-15T13:11:48;1.83;;;1.00;;
12663;SDS011;6396;58.490;15.528;2022-11-15T13:17:32;2.87;;;1.03;;
12663;SDS011;6396;58.490;15.528;2022-11-15T13:20:07;0.80;;;0.80;;
12663;SDS011;6396;58.490;15.528;2022-11-15T13:22:47;1.33;;;1.03;;
12663;SDS011;6396;58.490;15.528;2022-11-15T13:28:19;1.50;;;0.90;;
12663;SDS011;6396;58.490;15.528;2022-11-15T13:30:49;2.23;;;1.10;;
12663;SDS011;6396;58.490;15.528;2022-11-15T13:33:20;1.20;;;0.90;;
12663;SDS011;6396;58.490;15.528;2022-11-15T13:36:04;1.30;;;0.90;;
12663;SDS011;6396;58.490;15.528;2022-11-15T13:38:35;1.33;;;1.10;;
12663;SDS011;6396;58.490;15.528;2022-11-15T13:41:17;1.10;;;0.83;;
12663;SDS011;6396;58.490;15.528;2022-11-15T13:43:52;1.10;;;1.00;;
12663;SDS011;6396;58.490;15.528;2022-11-15T13:46:21;1.50;;;0.90;;
12663;SDS011;6396;58.490;15.528;2022-11-15T13:48:54;1.73;;;0.83;;
12663;SDS011;6396;58.490;15.528;2022-11-15T13:51:25;1.13;;;0.90;;
12663;SDS011;6396;58.490;15.528;2022-11-15T13:53:57;2.10;;;1.17;;
12663;SDS011;6396;58.490;15.528;2022-11-15T13:56:30;1.57;;;1.00;;
12663;SDS011;6396;58.490;15.528;2022-11-15T13:58:59;1.10;;;0.90;;
12663;SDS011;6396;58.490;15.528;2022-11-15T14:01:28;2.10;;;0.93;;
12663;SDS011;6396;58.490;15.528;2022-11-15T14:03:58;2.37;;;1.20;;
12663;SDS011;6396;58.490;15.528;2022-11-15T14:06:28;3.33;;;1.73;;
12663;SDS011;6396;58.490;15.528;2022-11-15T14:09:01;4.13;;;1.90;;
12663;SDS011;6396;58.490;15.528;2022-11-15T14:11:51;1.83;;;1.47;;
12663;SDS011;6396;58.490;15.528;2022-11-15T14:14:21;4.67;;;2.00;;
12663;SDS011;6396;58.490;15.528;2022-11-15T14:16:49;5.57;;;2.10;;
12663;SDS011;6396;58.490;15.528;2022-11-15T14:19:38;3.33;;;1.70;;
12663;SDS011;6396;58.490;15.528;2022-11-15T14:22:10;5.93;;;3.07;;
12663;SDS011;6396;58.490;15.528;2022-11-15T14:24:38;2.63;;;1.70;;
12663;SDS011;6396;58.490;15.528;2022-11-15T14:27:17;1.77;;;1.30;;
12663;SDS011;6396;58.490;15.528;2022-11-15T14:29:49;2.10;;;1.10;;
12663;SDS011;6396;58.490;15.528;2022-11-15T14:32:16;2.03;;;1.00;;
12663;SDS011;6396;58.490;15.528;2022-11-15T14:34:45;1.47;;;1.13;;
12663;SDS011;6396;58.490;15.528;2022-11-15T14:37:16;2.50;;;1.13;;
12663;SDS011;6396;58.490;15.528;2022-11-15T14:39:47;1.30;;;1.00;;
12663;SDS011;6396;58.490;15.528;2022-11-15T14:42:14;0.80;;;0.80;;
12663;SDS011;6396;58.490;15.528;2022-11-15T14:44:42;1.73;;;0.97;;
12663;SDS011;6396;58.490;15.528;2022-11-15T14:47:09;2.20;;;1.27;;
12663;SDS011;6396;58.490;15.528;2022-11-15T14:49:36;1.23;;;0.93;;
12663;SDS011;6396;58.490;15.528;2022-11-15T14:52:04;2.47;;;1.10;;
12663;SDS011;6396;58.490;15.528;2022-11-15T14:54:42;2.73;;;1.10;;
12663;SDS011;6396;58.490;15.528;2022-11-15T14:57:09;1.27;;;0.90;;
12663;SDS011;6396;58.490;15.528;2022-11-15T14:59:36;2.40;;;1.30;;
12663;SDS011;6396;58.490;15.528;2022-11-15T15:02:07;1.63;;;1.10;;
12663;SDS011;6396;58.490;15.528;2022-11-15T15:04:40;4.47;;;1.10;;
12663;SDS011;6396;58.490;15.528;2022-11-15T15:07:07;2.63;;;1.10;;
12663;SDS011;6396;58.490;15.528;2022-11-15T15:09:34;1.53;;;1.00;;
12663;SDS011;6396;58.490;15.528;2022-11-15T15:12:00;1.90;;;0.97;;
12663;SDS011;6396;58.490;15.528;2022-11-15T15:14:27;2.23;;;1.17;;
12663;SDS011;6396;58.490;15.528;2022-11-15T15:16:54;1.23;;;1.03;;
12663;SDS011;6396;58.490;15.528;2022-11-15T15:19:22;1.23;;;1.07;;
12663;SDS011;6396;58.490;15.528;2022-11-15T15:21:49;2.17;;;1.20;;
12663;SDS011;6396;58.490;15.528;2022-11-15T15:24:16;1.97;;;1.20;;
12663;SDS011;6396;58.490;15.528;2022-11-15T15:26:43;1.53;;;1.20;;
12663;SDS011;6396;58.490;15.528;2022-11-15T15:29:10;1.20;;;1.10;;
12663;SDS011;6396;58.490;15.528;2022-11-15T15:31:36;1.73;;;1.00;;
12663;SDS011;6396;58.490;15.528;2022-11-15T15:34:03;2.77;;;1.20;;
12663;SDS011;6396;58.490;15.528;2022-11-15T15:36:31;3.40;;;1.00;;
12663;SDS011;6396;58.490;15.528;2022-11-15T15:38:58;1.40;;;1.00;;
12663;SDS011;6396;58.490;15.528;2022-11-15T15:41:25;2.13;;;1.00;;
12663;SDS011;6396;58.490;15.528;2022-11-15T15:43:52;1.40;;;1.30;;
12663;SDS011;6396;58.490;15.528;2022-11-15T15:46:19;4.33;;;1.60;;
12663;SDS011;6396;58.490;15.528;2022-11-15T15:48:47;2.23;;;1.10;;